createdAt,value
2022-10-18T00:00:51.070Z,20.70
2022-10-18T00:03:18.152Z,26.60
2022-10-18T00:05:45.281Z,25.00
2022-10-18T00:08:12.348Z,25.93
2022-10-18T00:10:39.428Z,29.53
2022-10-18T00:13:06.489Z,23.13
2022-10-18T00:15:33.601Z,22.37
2022-10-18T00:18:00.681Z,26.33
2022-10-18T00:20:27.834Z,22.27
2022-10-18T00:22:55.057Z,26.33
2022-10-18T00:25:22.312Z,23.17
2022-10-18T00:27:49.357Z,25.47
2022-10-18T00:30:16.473Z,23.93
2022-10-18T00:32:43.575Z,19.07
2022-10-18T00:35:10.637Z,25.37
2022-10-18T00:37:37.756Z,25.80
2022-10-18T00:40:05.333Z,24.37
2022-10-18T00:42:33.677Z,24.57
2022-10-18T00:45:02.694Z,24.30
2022-10-18T00:47:31.490Z,26.67
2022-10-18T00:50:01.395Z,32.07
2022-10-18T00:52:36.475Z,30.90
2022-10-18T00:55:04.451Z,27.57
2022-10-18T00:57:32.209Z,24.87
2022-10-18T00:59:59.274Z,30.20
2022-10-18T01:02:26.546Z,27.87
2022-10-18T01:04:53.661Z,29.97
2022-10-18T01:07:26.773Z,29.80
2022-10-18T01:10:09.011Z,31.47
2022-10-18T01:12:36.083Z,23.10
2022-10-18T01:15:09.067Z,27.20
2022-10-18T01:18:08.513Z,26.80
2022-10-18T01:20:45.857Z,25.53
2022-10-18T01:23:15.975Z,21.93
2022-10-18T01:26:04.169Z,24.30
2022-10-18T01:28:43.308Z,25.20
2022-10-18T01:31:17.206Z,22.20
2022-10-18T01:33:57.168Z,23.43
2022-10-18T01:36:26.760Z,22.20
2022-10-18T01:38:55.142Z,29.90
2022-10-18T01:41:23.985Z,19.17
2022-10-18T01:43:53.325Z,25.80
2022-10-18T01:46:22.677Z,22.50
2022-10-18T01:48:50.539Z,23.90
2022-10-18T01:51:19.988Z,27.73
2022-10-18T01:53:47.274Z,21.57
2022-10-18T01:56:14.349Z,22.37
2022-10-18T01:58:47.474Z,20.17
2022-10-18T02:01:22.705Z,19.57
2022-10-18T02:03:51.856Z,18.23
2022-10-18T02:06:21.174Z,23.30
2022-10-18T02:08:53.100Z,18.53
2022-10-18T02:11:20.450Z,23.70
2022-10-18T02:13:53.197Z,21.07
2022-10-18T02:16:22.010Z,20.40
2022-10-18T02:18:51.064Z,22.10
2022-10-18T02:21:20.124Z,24.97
2022-10-18T02:23:47.629Z,20.33
2022-10-18T02:26:15.329Z,21.73
2022-10-18T02:28:42.559Z,18.17
2022-10-18T02:31:28.402Z,20.17
2022-10-18T02:34:05.446Z,20.63
2022-10-18T02:36:34.211Z,16.00
2022-10-18T02:39:03.453Z,22.37
2022-10-18T02:41:31.606Z,24.70
2022-10-18T02:43:58.927Z,19.17
2022-10-18T02:48:54.081Z,19.57
2022-10-18T02:51:21.193Z,17.43
2022-10-18T02:53:48.260Z,19.10
2022-10-18T02:56:15.396Z,21.40
2022-10-18T02:58:42.436Z,16.80
2022-10-18T03:01:09.635Z,23.13
2022-10-18T03:03:36.861Z,18.03
2022-10-18T03:06:03.946Z,21.60
2022-10-18T03:08:31.130Z,22.07
2022-10-18T03:10:58.245Z,20.73
2022-10-18T03:13:25.390Z,21.50
2022-10-18T03:15:52.504Z,20.30
2022-10-18T03:18:19.643Z,19.67
2022-10-18T03:20:46.700Z,18.37
2022-10-18T03:23:13.790Z,23.83
2022-10-18T03:25:42.914Z,18.00
2022-10-18T03:28:12.796Z,22.93
2022-10-18T03:30:39.882Z,19.03
2022-10-18T03:33:07.254Z,20.23
2022-10-18T03:35:34.350Z,19.57
2022-10-18T03:38:01.467Z,16.63
2022-10-18T03:40:28.591Z,20.40
2022-10-18T03:42:55.708Z,19.20
2022-10-18T03:45:25.257Z,20.67
2022-10-18T03:47:53.445Z,18.10
2022-10-18T03:50:21.073Z,24.67
2022-10-18T03:52:48.171Z,19.80
2022-10-18T03:55:15.332Z,15.57
2022-10-18T03:57:42.576Z,24.13
2022-10-18T04:00:10.052Z,19.83
2022-10-18T04:02:37.152Z,22.80
2022-10-18T04:05:04.607Z,17.43
2022-10-18T04:07:31.773Z,18.73
2022-10-18T04:09:58.857Z,20.67
2022-10-18T04:12:25.969Z,29.07
2022-10-18T04:14:55.393Z,23.53
2022-10-18T04:17:22.754Z,22.50
2022-10-18T04:19:49.805Z,17.73
2022-10-18T04:22:16.904Z,17.33
2022-10-18T04:24:44.053Z,19.37
2022-10-18T04:27:11.133Z,19.10
2022-10-18T04:29:38.217Z,18.70
2022-10-18T04:32:05.428Z,24.83
2022-10-18T04:34:32.639Z,19.43
2022-10-18T04:36:59.984Z,16.93
2022-10-18T04:39:27.060Z,19.20
2022-10-18T04:41:54.143Z,21.90
2022-10-18T04:44:21.232Z,24.53
2022-10-18T04:46:48.289Z,18.77
2022-10-18T04:49:15.365Z,21.53
2022-10-18T04:51:42.459Z,19.73
2022-10-18T04:54:09.595Z,18.10
2022-10-18T04:56:36.799Z,22.37
2022-10-18T04:59:03.918Z,19.40
2022-10-18T05:01:31.139Z,18.27
2022-10-18T05:03:58.261Z,18.50
2022-10-18T05:06:25.403Z,19.07
2022-10-18T05:08:52.505Z,25.10
2022-10-18T05:11:19.589Z,19.13
2022-10-18T05:13:48.606Z,17.63
2022-10-18T05:16:18.011Z,22.40
2022-10-18T05:18:45.099Z,18.10
2022-10-18T05:21:12.490Z,19.73
2022-10-18T05:23:39.606Z,30.30
2022-10-18T05:26:07.325Z,20.43
2022-10-18T05:28:39.977Z,21.30
2022-10-18T05:31:08.471Z,17.97
2022-10-18T05:33:35.783Z,22.87
2022-10-18T05:36:02.916Z,25.63
2022-10-18T05:38:33.221Z,20.10
2022-10-18T05:41:00.688Z,21.13
2022-10-18T05:43:30.904Z,20.27
2022-10-18T05:45:57.974Z,20.23
2022-10-18T05:48:25.143Z,23.58
2022-10-18T05:50:52.239Z,18.20
2022-10-18T05:53:35.577Z,20.13
2022-10-18T05:56:03.905Z,25.03
2022-10-18T05:58:31.004Z,24.90
2022-10-18T06:01:02.039Z,24.00
2022-10-18T06:03:30.640Z,22.23
2022-10-18T06:06:01.600Z,22.90
2022-10-18T06:08:28.936Z,22.20
2022-10-18T06:10:56.262Z,22.27
2022-10-18T06:13:23.339Z,20.30
2022-10-18T06:15:50.783Z,30.83
2022-10-18T06:18:17.847Z,19.13
2022-10-18T06:20:44.950Z,34.77
2022-10-18T06:23:12.039Z,28.20
2022-10-18T06:25:39.164Z,23.13
2022-10-18T06:28:08.936Z,24.70
2022-10-18T06:30:38.638Z,19.93
2022-10-18T06:33:05.706Z,23.10
2022-10-18T06:35:32.821Z,27.93
2022-10-18T06:37:59.915Z,24.07
2022-10-18T06:40:27.016Z,19.10
2022-10-18T06:43:00.537Z,18.63
2022-10-18T06:45:37.685Z,27.90
2022-10-18T06:48:04.923Z,21.37
2022-10-18T06:50:32.033Z,27.93
2022-10-18T06:52:59.155Z,22.43
2022-10-18T06:55:26.205Z,22.83
2022-10-18T06:57:53.750Z,19.63
2022-10-18T07:00:20.882Z,17.67
2022-10-18T07:02:47.972Z,17.87
2022-10-18T07:05:15.058Z,20.73
2022-10-18T07:07:42.142Z,18.50
2022-10-18T07:10:12.955Z,17.23
2022-10-18T07:12:40.514Z,14.30
2022-10-18T07:15:09.494Z,15.47
2022-10-18T07:17:36.800Z,14.97
2022-10-18T07:20:04.319Z,24.88
2022-10-18T07:22:31.406Z,16.83
2022-10-18T07:24:58.490Z,20.50
2022-10-18T07:27:25.585Z,19.58
2022-10-18T07:29:52.674Z,17.52
2022-10-18T07:32:19.756Z,14.52
2022-10-18T07:34:46.805Z,24.98
2022-10-18T07:37:13.965Z,17.23
2022-10-18T07:39:41.049Z,18.73
2022-10-18T07:42:08.213Z,18.83
2022-10-18T07:44:35.301Z,21.33
2022-10-18T07:47:02.349Z,20.17
2022-10-18T07:49:29.406Z,22.90
2022-10-18T07:51:56.500Z,21.57
2022-10-18T07:54:23.649Z,26.53
2022-10-18T07:56:50.766Z,25.33
2022-10-18T07:59:17.901Z,19.07
2022-10-18T08:01:45.016Z,20.47
2022-10-18T08:04:16.237Z,27.23
2022-10-18T08:06:43.699Z,25.40
2022-10-18T08:09:10.823Z,20.47
2022-10-18T08:11:37.942Z,21.93
2022-10-18T08:14:04.997Z,22.60
2022-10-18T08:19:04.369Z,30.77
2022-10-18T08:21:31.449Z,33.70
2022-10-18T08:23:58.515Z,26.17
2022-10-18T08:26:25.639Z,32.27
2022-10-18T08:28:58.271Z,32.10
2022-10-18T08:31:31.155Z,32.00
2022-10-18T08:33:58.465Z,34.80
2022-10-18T08:36:25.607Z,32.50
2022-10-18T08:38:53.092Z,30.50
2022-10-18T08:41:39.941Z,29.73
2022-10-18T08:44:20.162Z,37.83
2022-10-18T08:46:52.569Z,32.07
2022-10-18T08:49:31.483Z,27.67
2022-10-18T08:51:58.822Z,19.90
2022-10-18T08:54:34.799Z,20.47
2022-10-18T08:57:02.884Z,24.90
2022-10-18T08:59:33.166Z,16.93
2022-10-18T09:02:05.666Z,21.90
2022-10-18T09:04:38.301Z,25.93
2022-10-18T09:07:27.398Z,25.60
2022-10-18T09:10:09.667Z,17.97
2022-10-18T09:12:52.153Z,23.33
2022-10-18T09:15:19.245Z,20.53
2022-10-18T09:17:46.354Z,18.80
2022-10-18T09:20:26.976Z,23.27
2022-10-18T09:22:55.837Z,27.70
2022-10-18T09:25:25.851Z,25.70
2022-10-18T09:27:53.302Z,29.50
2022-10-18T09:30:35.861Z,26.63
2022-10-18T09:33:02.943Z,29.53
2022-10-18T09:35:43.560Z,24.03
2022-10-18T09:38:12.245Z,27.10
2022-10-18T09:40:48.934Z,27.50
2022-10-18T09:43:22.428Z,23.37
2022-10-18T09:45:50.925Z,25.93
2022-10-18T09:48:21.166Z,22.67
2022-10-18T09:50:48.207Z,24.53
2022-10-18T09:53:33.916Z,26.70
2022-10-18T09:56:21.237Z,24.27
2022-10-18T09:58:49.661Z,31.30
2022-10-18T10:01:19.055Z,29.70
2022-10-18T10:03:46.337Z,24.97
2022-10-18T10:06:14.922Z,23.87
2022-10-18T10:08:42.806Z,29.57
2022-10-18T10:11:28.391Z,19.53
2022-10-18T10:14:08.112Z,19.70
2022-10-18T10:16:43.059Z,17.53
2022-10-18T10:19:17.391Z,20.03
2022-10-18T10:21:44.697Z,18.83
2022-10-18T10:24:20.602Z,18.83
2022-10-18T10:26:47.877Z,18.33
2022-10-18T10:29:44.597Z,17.60
2022-10-18T10:32:14.118Z,19.47
2022-10-18T10:34:44.618Z,17.97
2022-10-18T10:37:24.272Z,17.27
2022-10-18T10:40:19.252Z,17.53
2022-10-18T10:42:59.947Z,21.07
2022-10-18T10:45:42.145Z,19.63
2022-10-18T10:48:14.595Z,17.13
2022-10-18T10:50:53.117Z,18.60
2022-10-18T10:53:33.426Z,16.33
2022-10-18T10:56:00.968Z,18.02
2022-10-18T10:58:30.122Z,16.20
2022-10-18T11:00:57.958Z,15.80
2022-10-18T11:03:29.843Z,16.33
2022-10-18T11:05:58.705Z,20.95
2022-10-18T11:08:40.633Z,18.45
2022-10-18T11:11:30.529Z,15.98
2022-10-18T11:14:24.718Z,17.90
2022-10-18T11:17:08.098Z,13.65
2022-10-18T11:19:54.298Z,17.65
2022-10-18T11:22:22.540Z,17.23
2022-10-18T11:24:49.648Z,17.33
2022-10-18T11:27:31.462Z,12.52
2022-10-18T11:30:01.532Z,13.90
2022-10-18T11:32:51.510Z,12.25
2022-10-18T11:35:21.620Z,21.08
2022-10-18T11:37:57.716Z,14.43
2022-10-18T11:40:27.612Z,16.73
2022-10-18T11:43:06.714Z,16.92
2022-10-18T11:45:36.528Z,21.95
2022-10-18T11:48:03.578Z,12.63
2022-10-18T11:50:51.701Z,13.73
2022-10-18T11:53:42.264Z,16.77
2022-10-18T11:56:20.222Z,15.13
2022-10-18T11:58:57.311Z,15.95
2022-10-18T12:01:27.673Z,15.93
2022-10-18T12:04:30.382Z,15.07
2022-10-18T12:06:57.943Z,15.40
2022-10-18T12:09:30.535Z,12.68
2022-10-18T12:12:07.996Z,15.07
2022-10-18T12:14:41.068Z,15.63
2022-10-18T12:17:51.461Z,17.92
2022-10-18T12:20:02.763Z,18.25
2022-10-18T12:22:40.319Z,15.20
2022-10-18T12:25:13.075Z,15.20
2022-10-18T12:27:42.005Z,16.77
2022-10-18T12:30:25.069Z,20.58
2022-10-18T12:33:23.492Z,15.65
2022-10-18T12:36:02.609Z,15.10
2022-10-18T12:38:32.309Z,16.55
2022-10-18T12:40:59.824Z,18.83
2022-10-18T12:43:36.357Z,18.67
2022-10-18T12:46:07.286Z,15.65
2022-10-18T12:48:39.475Z,12.98
2022-10-18T12:51:20.289Z,11.07
2022-10-18T12:53:48.673Z,14.82
2022-10-18T12:56:36.999Z,12.52
2022-10-18T12:59:16.507Z,12.68
2022-10-18T13:02:03.816Z,12.65
2022-10-18T13:04:32.472Z,15.45
2022-10-18T13:07:03.063Z,16.02
2022-10-18T13:09:37.739Z,10.60
2022-10-18T13:12:11.021Z,8.13
2022-10-18T13:14:54.479Z,11.02
2022-10-18T13:17:35.475Z,8.35
2022-10-18T13:20:25.113Z,10.77
2022-10-18T13:23:12.243Z,8.95
2022-10-18T13:25:51.269Z,10.50
2022-10-18T13:28:18.359Z,10.50
2022-10-18T13:30:48.473Z,7.93
2022-10-18T13:33:22.201Z,6.80
2022-10-18T13:35:55.314Z,14.10
2022-10-18T13:38:34.743Z,7.03
2022-10-18T13:41:09.629Z,7.03
2022-10-18T13:44:00.114Z,5.68
2022-10-18T13:46:33.288Z,6.30
2022-10-18T13:49:15.377Z,6.00
2022-10-18T13:51:57.369Z,6.65
2022-10-18T13:54:30.334Z,8.23
2022-10-18T13:57:09.383Z,6.47
2022-10-18T14:02:15.088Z,7.22
2022-10-18T14:05:16.638Z,6.20
2022-10-18T14:07:48.025Z,5.70
2022-10-18T14:10:33.295Z,4.90
2022-10-18T14:13:17.658Z,7.32
2022-10-18T14:15:46.064Z,9.48
2022-10-18T14:18:17.279Z,4.88
2022-10-18T14:21:12.305Z,8.90
2022-10-18T14:23:47.296Z,4.30
2022-10-18T14:26:15.939Z,8.63
2022-10-18T14:29:00.244Z,4.03
2022-10-18T14:31:28.054Z,3.97
2022-10-18T14:33:58.318Z,4.72
2022-10-18T14:36:27.641Z,2.45
2022-10-18T14:38:57.544Z,2.67
2022-10-18T14:41:25.829Z,6.30
2022-10-18T14:43:54.316Z,6.28
2022-10-18T14:46:25.922Z,4.68
2022-10-18T14:48:57.370Z,5.65
2022-10-18T14:51:24.961Z,8.50
2022-10-18T14:53:52.450Z,6.30
2022-10-18T14:56:32.427Z,8.27
2022-10-18T14:59:03.031Z,6.77
2022-10-18T15:01:31.219Z,5.83
2022-10-18T15:04:03.384Z,8.48
2022-10-18T15:06:30.462Z,6.20
2022-10-18T15:08:58.949Z,6.18
2022-10-18T15:11:26.741Z,3.90
2022-10-18T15:14:24.575Z,3.80
2022-10-18T15:16:52.956Z,5.57
2022-10-18T15:19:20.013Z,8.98
2022-10-18T15:22:08.085Z,7.53
2022-10-18T15:24:41.633Z,5.43
2022-10-18T15:27:08.683Z,4.13
2022-10-18T15:29:37.629Z,2.75
2022-10-18T15:32:05.760Z,3.13
2022-10-18T15:34:32.823Z,4.47
2022-10-18T15:37:00.640Z,4.07
2022-10-18T15:39:32.079Z,3.03
2022-10-18T15:42:00.871Z,2.53
2022-10-18T15:44:31.817Z,5.68
2022-10-18T15:47:20.092Z,5.32
2022-10-18T15:49:47.200Z,4.97
2022-10-18T15:52:37.764Z,5.93
2022-10-18T15:55:23.667Z,3.13
2022-10-18T15:57:50.831Z,2.87
2022-10-18T16:00:20.372Z,2.47
2022-10-18T16:02:47.585Z,5.63
2022-10-18T16:05:17.415Z,4.50
2022-10-18T16:07:44.479Z,10.70
2022-10-18T16:10:15.213Z,3.93
2022-10-18T16:12:42.339Z,3.67
2022-10-18T16:15:09.862Z,6.53
2022-10-18T16:17:36.979Z,4.00
2022-10-18T16:20:04.334Z,6.00
2022-10-18T16:22:34.704Z,7.93
2022-10-18T16:25:04.191Z,5.23
2022-10-18T16:27:31.280Z,4.77
2022-10-18T16:29:58.575Z,5.60
2022-10-18T16:32:25.698Z,7.43
2022-10-18T16:34:52.779Z,9.03
2022-10-18T16:37:19.906Z,6.67
2022-10-18T16:39:46.967Z,7.30
2022-10-18T16:42:14.056Z,5.33
2022-10-18T16:44:41.163Z,6.17
2022-10-18T16:47:08.231Z,4.70
2022-10-18T16:49:35.300Z,7.20
2022-10-18T16:52:02.414Z,6.30
2022-10-18T16:54:29.466Z,10.20
2022-10-18T16:56:56.555Z,11.00
2022-10-18T16:59:27.803Z,9.90
2022-10-18T17:01:55.063Z,13.53
2022-10-18T17:04:22.177Z,13.77
2022-10-18T17:06:49.300Z,10.63
2022-10-18T17:09:16.645Z,11.53
2022-10-18T17:11:43.835Z,11.40
2022-10-18T17:14:10.890Z,9.70
2022-10-18T17:16:38.951Z,12.27
2022-10-18T17:19:07.688Z,8.60
2022-10-18T17:21:34.961Z,10.10
2022-10-18T17:24:03.141Z,9.30
2022-10-18T17:26:30.604Z,12.27
2022-10-18T17:29:05.385Z,11.80
2022-10-18T17:31:32.964Z,8.40
2022-10-18T17:34:01.800Z,8.60
2022-10-18T17:36:29.344Z,10.87
2022-10-18T17:38:56.757Z,10.47
2022-10-18T17:41:23.844Z,10.07
2022-10-18T17:43:50.989Z,11.23
2022-10-18T17:46:19.443Z,10.53
2022-10-18T17:48:46.585Z,12.03
2022-10-18T17:51:15.405Z,12.90
2022-10-18T17:53:42.928Z,18.20
2022-10-18T17:56:10.780Z,15.03
2022-10-18T17:58:37.939Z,22.57
2022-10-18T18:01:18.286Z,22.60
2022-10-18T18:03:47.504Z,35.70
2022-10-18T18:06:15.647Z,31.73
2022-10-18T18:08:42.781Z,23.33
2022-10-18T18:11:09.865Z,30.13
2022-10-18T18:13:37.001Z,18.77
2022-10-18T18:16:15.609Z,17.83
2022-10-18T18:18:42.966Z,15.90
2022-10-18T18:21:10.202Z,17.00
2022-10-18T18:23:37.329Z,45.70
2022-10-18T18:26:04.431Z,46.93
2022-10-18T18:28:31.547Z,29.80
2022-10-18T18:30:58.689Z,25.17
2022-10-18T18:33:25.804Z,14.97
2022-10-18T18:35:57.081Z,16.77
2022-10-18T18:38:24.363Z,17.70
2022-10-18T18:40:51.419Z,14.17
2022-10-18T18:43:23.069Z,11.30
2022-10-18T18:45:51.813Z,12.87
2022-10-18T18:48:19.943Z,13.63
2022-10-18T18:50:51.770Z,12.17
2022-10-18T18:53:19.451Z,17.90
2022-10-18T18:55:46.629Z,14.60
2022-10-18T18:58:13.698Z,19.13
2022-10-18T19:00:44.326Z,24.57
2022-10-18T19:03:12.048Z,18.93
2022-10-18T19:05:39.343Z,15.83
2022-10-18T19:08:06.581Z,11.43
2022-10-18T19:10:33.764Z,13.57
2022-10-18T19:13:00.831Z,17.53
2022-10-18T19:15:27.986Z,13.57
2022-10-18T19:17:56.054Z,20.30
2022-10-18T19:20:23.124Z,17.77
2022-10-18T19:22:50.244Z,17.20
2022-10-18T19:25:17.365Z,20.03
2022-10-18T19:27:44.548Z,26.47
2022-10-18T19:30:12.230Z,25.83
2022-10-18T19:32:39.364Z,29.03
2022-10-18T19:35:06.500Z,19.00
2022-10-18T19:37:33.714Z,19.67
2022-10-18T19:40:01.062Z,30.97
2022-10-18T19:42:31.302Z,32.53
2022-10-18T19:44:58.824Z,30.73
2022-10-18T19:47:25.865Z,40.00
2022-10-18T19:49:53.747Z,23.90
2022-10-18T19:52:20.850Z,23.07
2022-10-18T19:54:49.373Z,25.97
2022-10-18T19:57:16.497Z,18.23
2022-10-18T19:59:43.568Z,19.63
2022-10-18T20:02:14.105Z,29.47
2022-10-18T20:04:41.297Z,18.47
2022-10-18T20:07:08.415Z,19.77
2022-10-18T20:09:35.535Z,21.27
2022-10-18T20:12:02.607Z,26.40
2022-10-18T20:14:29.719Z,24.03
2022-10-18T20:16:56.838Z,42.73
2022-10-18T20:19:24.117Z,30.73
2022-10-18T20:21:51.267Z,49.07
2022-10-18T20:24:18.315Z,64.10
2022-10-18T20:26:45.495Z,50.97
2022-10-18T20:29:12.654Z,63.10
2022-10-18T20:31:39.848Z,50.73
2022-10-18T20:34:08.445Z,52.20
2022-10-18T20:36:35.933Z,52.90
2022-10-18T20:39:03.749Z,92.40
2022-10-18T20:41:32.503Z,116.80
2022-10-18T20:44:01.124Z,152.07
2022-10-18T20:46:30.529Z,125.60
2022-10-18T20:48:57.875Z,63.10
2022-10-18T20:51:25.012Z,124.03
2022-10-18T20:53:52.262Z,82.57
2022-10-18T20:56:20.755Z,75.80
2022-10-18T20:58:48.655Z,56.10
2022-10-18T21:01:17.717Z,138.23
2022-10-18T21:03:45.807Z,42.20
2022-10-18T21:06:14.104Z,40.30
2022-10-18T21:08:41.516Z,40.50
2022-10-18T21:11:08.723Z,51.20
2022-10-18T21:13:35.862Z,50.40
2022-10-18T21:16:03.642Z,49.30
2022-10-18T21:18:31.954Z,43.13
2022-10-18T21:21:09.262Z,37.53
2022-10-18T21:23:36.405Z,57.63
2022-10-18T21:26:03.455Z,33.30
2022-10-18T21:28:30.560Z,41.50
2022-10-18T21:31:07.975Z,36.63
2022-10-18T21:33:35.064Z,45.53
2022-10-18T21:36:02.432Z,23.67
2022-10-18T21:38:29.560Z,39.40
2022-10-18T21:40:56.624Z,49.87
2022-10-18T21:43:23.705Z,47.90
2022-10-18T21:45:56.876Z,73.87
2022-10-18T21:48:23.940Z,84.00
2022-10-18T21:50:50.994Z,87.77
2022-10-18T21:53:18.412Z,62.43
2022-10-18T21:55:45.525Z,63.00
2022-10-18T21:58:12.581Z,66.50
2022-10-18T22:00:39.825Z,71.73
2022-10-18T22:03:10.449Z,79.03
2022-10-18T22:05:37.564Z,87.20
2022-10-18T22:08:05.349Z,53.30
2022-10-18T22:10:32.700Z,49.67
2022-10-18T22:12:59.786Z,89.93
2022-10-18T22:15:27.027Z,74.73
2022-10-18T22:17:54.155Z,84.17
2022-10-18T22:20:21.208Z,47.77
2022-10-18T22:22:48.239Z,61.33
2022-10-18T22:25:15.337Z,100.60
2022-10-18T22:27:42.481Z,96.47
2022-10-18T22:30:09.835Z,84.87
2022-10-18T22:32:36.890Z,80.87
2022-10-18T22:35:04.097Z,69.13
2022-10-18T22:37:31.508Z,59.63
2022-10-18T22:39:58.963Z,61.77
2022-10-18T22:42:26.172Z,79.50
2022-10-18T22:44:53.264Z,71.33
2022-10-18T22:47:20.329Z,106.73
2022-10-18T22:49:47.408Z,106.20
2022-10-18T22:52:14.495Z,85.37
2022-10-18T22:54:41.713Z,55.23
2022-10-18T22:57:08.794Z,59.83
2022-10-18T22:59:35.854Z,79.87
2022-10-18T23:02:02.928Z,73.27
2022-10-18T23:04:30.000Z,72.80
2022-10-18T23:06:57.144Z,53.93
2022-10-18T23:09:24.201Z,56.57
2022-10-18T23:11:52.905Z,55.27
2022-10-18T23:14:20.070Z,57.30
2022-10-18T23:16:47.146Z,63.00
2022-10-18T23:19:17.471Z,41.53
2022-10-18T23:21:44.640Z,42.90
2022-10-18T23:24:11.727Z,57.73
2022-10-18T23:26:38.790Z,89.27
2022-10-18T23:29:06.004Z,68.77
2022-10-18T23:31:33.732Z,65.87
2022-10-18T23:34:02.415Z,58.10
2022-10-18T23:36:29.926Z,84.90
2022-10-18T23:38:57.307Z,39.43
2022-10-18T23:41:24.658Z,58.47
2022-10-18T23:43:51.950Z,122.40
2022-10-18T23:46:19.347Z,54.07
2022-10-18T23:48:46.826Z,47.87
2022-10-18T23:51:14.264Z,52.60
2022-10-18T23:53:41.357Z,93.23
2022-10-18T23:56:09.768Z,70.43
2022-10-18T23:58:37.328Z,93.60
